createdAt,value
2023-04-16T00:00:51.195Z,106.08
2023-04-16T00:01:51.239Z,104.66
2023-04-16T00:02:51.293Z,102.50
2023-04-16T00:03:51.271Z,99.63
2023-04-16T00:04:51.165Z,103.77
2023-04-16T00:05:51.142Z,99.58
2023-04-16T00:06:51.130Z,96.62
2023-04-16T00:07:51.118Z,95.43
2023-04-16T00:08:51.092Z,97.15
2023-04-16T00:09:51.062Z,99.87
2023-04-16T00:10:51.019Z,97.11
2023-04-16T00:11:51.005Z,99.67
2023-04-16T00:12:50.990Z,98.01
2023-04-16T00:13:50.996Z,98.62
2023-04-16T00:14:50.986Z,97.10
2023-04-16T00:15:50.966Z,97.24
2023-04-16T00:16:51.010Z,96.91
2023-04-16T00:17:50.968Z,93.76
2023-04-16T00:18:50.965Z,100.66
2023-04-16T00:19:50.975Z,99.07
2023-04-16T00:20:50.979Z,99.70
2023-04-16T00:21:51.009Z,102.72
2023-04-16T00:22:51.006Z,97.65
2023-04-16T00:23:51.017Z,105.98
2023-04-16T00:24:51.012Z,98.67
2023-04-16T00:25:51.022Z,93.76
2023-04-16T00:26:51.037Z,96.75
2023-04-16T00:27:51.038Z,98.71
2023-04-16T00:28:51.032Z,100.30
2023-04-16T00:29:50.986Z,98.67
2023-04-16T00:30:50.967Z,94.42
2023-04-16T00:31:50.936Z,93.03
2023-04-16T00:32:50.970Z,99.00
2023-04-16T00:33:50.923Z,99.56
2023-04-16T00:34:50.931Z,97.52
2023-04-16T00:35:50.952Z,95.70
2023-04-16T00:36:50.974Z,97.97
2023-04-16T00:37:50.981Z,96.82
2023-04-16T00:38:50.982Z,97.63
2023-04-16T00:39:50.997Z,96.64
2023-04-16T00:40:51.002Z,96.06
2023-04-16T00:41:50.998Z,94.83
2023-04-16T00:42:50.993Z,97.84
2023-04-16T00:43:51.020Z,101.26
2023-04-16T00:44:50.986Z,92.94
2023-04-16T00:45:51.022Z,97.63
2023-04-16T00:46:50.985Z,96.13
2023-04-16T00:47:51.033Z,102.98
2023-04-16T00:48:51.020Z,101.51
2023-04-16T00:49:51.015Z,98.89
2023-04-16T00:50:50.999Z,100.21
2023-04-16T00:51:50.980Z,96.46
2023-04-16T00:52:50.956Z,101.77
2023-04-16T00:53:50.940Z,100.38
2023-04-16T00:54:50.925Z,106.63
2023-04-16T00:55:50.924Z,107.92
2023-04-16T00:56:50.894Z,105.78
2023-04-16T00:57:50.876Z,104.97
2023-04-16T00:58:50.864Z,96.11
2023-04-16T00:59:50.859Z,100.65
2023-04-16T01:00:50.837Z,98.55
2023-04-16T01:01:50.902Z,97.35
2023-04-16T01:02:50.957Z,97.37
2023-04-16T01:03:50.942Z,100.17
2023-04-16T01:04:50.798Z,95.46
2023-04-16T01:05:51.510Z,98.72
2023-04-16T01:06:50.970Z,97.79
2023-04-16T01:07:50.795Z,100.46
2023-04-16T01:08:50.805Z,99.67
2023-04-16T01:09:50.806Z,95.59
2023-04-16T01:10:50.808Z,96.02
2023-04-16T01:11:50.801Z,97.73
2023-04-16T01:12:50.802Z,99.33
2023-04-16T01:13:50.784Z,97.33
2023-04-16T01:14:50.757Z,96.97
2023-04-16T01:15:50.778Z,101.14
2023-04-16T01:16:50.743Z,98.05
2023-04-16T01:17:50.788Z,99.48
2023-04-16T01:18:50.741Z,101.88
2023-04-16T01:19:50.744Z,97.51
2023-04-16T01:20:50.736Z,97.28
2023-04-16T01:21:50.761Z,96.06
2023-04-16T01:22:50.748Z,93.34
2023-04-16T01:23:50.734Z,96.42
2023-04-16T01:24:50.721Z,99.06
2023-04-16T01:25:50.723Z,95.31
2023-04-16T01:26:50.864Z,96.55
2023-04-16T01:27:50.733Z,96.48
2023-04-16T01:28:50.742Z,97.80
2023-04-16T01:29:50.752Z,98.23
2023-04-16T01:30:50.744Z,101.95
2023-04-16T01:31:50.808Z,100.81
2023-04-16T01:32:50.776Z,99.30
2023-04-16T01:33:50.776Z,108.22
2023-04-16T01:34:50.774Z,99.28
2023-04-16T01:35:50.778Z,101.20
2023-04-16T01:36:50.790Z,101.15
2023-04-16T01:37:50.800Z,96.53
2023-04-16T01:38:50.815Z,97.22
2023-04-16T01:39:50.817Z,95.40
2023-04-16T01:40:50.797Z,95.81
2023-04-16T01:41:50.813Z,100.41
2023-04-16T01:42:50.829Z,99.17
2023-04-16T01:43:50.813Z,102.16
2023-04-16T01:44:50.884Z,98.58
2023-04-16T01:45:50.873Z,103.48
2023-04-16T01:46:50.792Z,96.14
2023-04-16T01:47:50.811Z,102.19
2023-04-16T01:48:50.781Z,101.04
2023-04-16T01:49:50.759Z,100.07
2023-04-16T01:50:50.727Z,102.76
2023-04-16T01:51:50.696Z,100.50
2023-04-16T01:52:50.673Z,102.62
2023-04-16T01:53:50.634Z,103.07
2023-04-16T01:54:50.607Z,103.58
2023-04-16T01:55:50.591Z,99.24
2023-04-16T01:56:50.585Z,102.89
2023-04-16T01:57:50.595Z,97.68
2023-04-16T01:58:50.541Z,101.21
2023-04-16T01:59:50.534Z,103.09
2023-04-16T02:00:50.535Z,94.59
2023-04-16T02:01:50.571Z,99.53
2023-04-16T02:02:50.562Z,98.13
2023-04-16T02:03:50.566Z,103.46
2023-04-16T02:04:50.428Z,101.34
2023-04-16T02:05:50.424Z,98.05
2023-04-16T02:06:50.399Z,101.75
2023-04-16T02:07:50.424Z,102.20
2023-04-16T02:08:50.426Z,102.76
2023-04-16T02:09:50.408Z,100.51
2023-04-16T02:10:50.396Z,102.72
2023-04-16T02:11:50.409Z,103.24
2023-04-16T02:12:50.383Z,101.79
2023-04-16T02:13:50.371Z,97.88
2023-04-16T02:14:50.367Z,99.83
2023-04-16T02:15:50.374Z,98.34
2023-04-16T02:16:50.381Z,95.82
2023-04-16T02:17:50.357Z,101.99
2023-04-16T02:18:50.348Z,102.31
2023-04-16T02:19:50.346Z,102.46
2023-04-16T02:20:50.303Z,102.24
2023-04-16T02:21:50.264Z,98.40
2023-04-16T02:22:50.245Z,98.37
2023-04-16T02:23:50.231Z,97.78
2023-04-16T02:24:50.196Z,98.87
2023-04-16T02:25:50.159Z,97.30
2023-04-16T02:26:50.125Z,102.30
2023-04-16T02:27:50.079Z,105.40
2023-04-16T02:28:50.058Z,100.42
2023-04-16T02:29:50.040Z,103.49
2023-04-16T02:30:50.014Z,96.54
2023-04-16T02:31:50.051Z,99.71
2023-04-16T02:32:50.051Z,99.18
2023-04-16T02:33:49.963Z,101.30
2023-04-16T02:34:49.944Z,103.77
2023-04-16T02:35:49.931Z,102.34
2023-04-16T02:36:49.958Z,101.58
2023-04-16T02:37:49.932Z,97.44
2023-04-16T02:38:49.916Z,98.76
2023-04-16T02:39:49.926Z,96.99
2023-04-16T02:40:49.903Z,100.68
2023-04-16T02:41:49.872Z,104.14
2023-04-16T02:42:49.867Z,99.40
2023-04-16T02:43:49.853Z,104.67
2023-04-16T02:44:49.845Z,105.15
2023-04-16T02:45:49.835Z,101.67
2023-04-16T02:46:49.800Z,104.89
2023-04-16T02:47:49.857Z,100.12
2023-04-16T02:48:49.797Z,96.76
2023-04-16T02:49:49.782Z,99.24
2023-04-16T02:50:49.814Z,99.97
2023-04-16T02:51:49.806Z,97.41
2023-04-16T02:52:49.797Z,103.45
2023-04-16T02:53:49.773Z,100.59
2023-04-16T02:54:49.771Z,106.27
2023-04-16T02:55:49.728Z,104.79
2023-04-16T02:56:49.725Z,100.44
2023-04-16T02:57:49.771Z,108.41
2023-04-16T02:58:49.727Z,102.98
2023-04-16T02:59:49.724Z,102.81
2023-04-16T03:00:49.722Z,103.53
2023-04-16T03:01:49.879Z,107.37
2023-04-16T03:02:49.789Z,107.21
2023-04-16T03:03:49.709Z,105.07
2023-04-16T03:04:49.637Z,108.23
2023-04-16T03:05:49.619Z,106.30
2023-04-16T03:06:49.585Z,107.35
2023-04-16T03:07:49.582Z,103.20
2023-04-16T03:08:49.564Z,107.31
2023-04-16T03:09:49.561Z,101.88
2023-04-16T03:10:49.554Z,103.22
2023-04-16T03:11:49.549Z,104.75
2023-04-16T03:12:49.585Z,104.22
2023-04-16T03:13:49.517Z,97.49
2023-04-16T03:14:49.500Z,100.75
2023-04-16T03:15:49.479Z,98.24
2023-04-16T03:16:49.441Z,100.83
2023-04-16T03:17:49.428Z,104.62
2023-04-16T03:18:49.392Z,105.03
2023-04-16T03:19:49.387Z,106.74
2023-04-16T03:20:49.378Z,101.10
2023-04-16T03:21:49.349Z,102.90
2023-04-16T03:22:49.354Z,102.53
2023-04-16T03:23:49.336Z,107.05
2023-04-16T03:24:49.344Z,109.21
2023-04-16T03:25:49.344Z,107.88
2023-04-16T03:26:49.363Z,105.98
2023-04-16T03:27:49.353Z,103.35
2023-04-16T03:28:49.346Z,105.98
2023-04-16T03:29:49.355Z,105.12
2023-04-16T03:30:49.375Z,105.20
2023-04-16T03:31:49.339Z,101.62
2023-04-16T03:32:49.342Z,103.77
2023-04-16T03:33:49.311Z,104.87
2023-04-16T03:34:49.295Z,105.26
2023-04-16T03:35:49.283Z,106.42
2023-04-16T03:36:49.241Z,100.29
2023-04-16T03:37:49.230Z,104.54
2023-04-16T03:38:49.222Z,104.01
2023-04-16T03:39:49.191Z,102.32
2023-04-16T03:40:49.208Z,100.93
2023-04-16T03:41:49.202Z,105.76
2023-04-16T03:42:49.185Z,107.12
2023-04-16T03:43:49.190Z,107.86
2023-04-16T03:44:49.163Z,106.72
2023-04-16T03:45:49.147Z,108.33
2023-04-16T03:46:49.236Z,111.50
2023-04-16T03:47:49.133Z,108.41
2023-04-16T03:48:49.093Z,112.56
2023-04-16T03:49:49.089Z,108.14
2023-04-16T03:50:49.067Z,109.13
2023-04-16T03:51:49.053Z,110.44
2023-04-16T03:52:49.042Z,108.13
2023-04-16T03:53:49.015Z,106.30
2023-04-16T03:54:48.975Z,103.87
2023-04-16T03:55:48.942Z,112.45
2023-04-16T03:56:48.960Z,110.81
2023-04-16T03:57:48.936Z,111.28
2023-04-16T03:58:48.873Z,107.62
2023-04-16T03:59:48.840Z,107.50
2023-04-16T04:00:48.802Z,113.52
2023-04-16T04:01:48.990Z,103.63
2023-04-16T04:02:48.866Z,104.61
2023-04-16T04:03:48.905Z,105.33
2023-04-16T04:04:48.782Z,111.18
2023-04-16T04:05:48.623Z,105.73
2023-04-16T04:06:48.586Z,110.15
2023-04-16T04:07:48.556Z,112.50
2023-04-16T04:08:48.528Z,103.19
2023-04-16T04:09:48.519Z,108.04
2023-04-16T04:10:48.528Z,111.68
2023-04-16T04:11:48.489Z,107.75
2023-04-16T04:12:48.469Z,109.70
2023-04-16T04:13:48.443Z,108.16
2023-04-16T04:14:48.412Z,107.36
2023-04-16T04:15:48.423Z,113.99
2023-04-16T04:16:48.454Z,109.48
2023-04-16T04:17:48.431Z,110.97
2023-04-16T04:18:48.368Z,112.11
2023-04-16T04:20:00.544Z,110.43
2023-04-16T04:20:49.326Z,110.61
2023-04-16T04:21:48.269Z,108.79
2023-04-16T04:22:48.227Z,111.49
2023-04-16T04:23:48.177Z,114.02
2023-04-16T04:24:48.207Z,112.49
2023-04-16T04:25:48.263Z,114.87
2023-04-16T04:26:48.057Z,116.05
2023-04-16T04:27:48.014Z,111.65
2023-04-16T04:28:47.980Z,113.97
2023-04-16T04:29:47.936Z,109.03
2023-04-16T04:30:47.905Z,117.99
2023-04-16T04:31:47.892Z,112.81
2023-04-16T04:32:47.860Z,111.40
2023-04-16T04:33:47.821Z,109.36
2023-04-16T04:34:47.792Z,116.29
2023-04-16T04:35:47.782Z,114.69
2023-04-16T04:36:47.829Z,113.65
2023-04-16T04:37:47.778Z,114.45
2023-04-16T04:38:47.778Z,115.57
2023-04-16T04:39:47.757Z,108.22
2023-04-16T04:40:47.741Z,111.64
2023-04-16T04:41:47.725Z,114.82
2023-04-16T04:42:47.685Z,117.79
2023-04-16T04:43:47.674Z,114.24
2023-04-16T04:44:47.660Z,111.99
2023-04-16T04:45:47.677Z,108.79
2023-04-16T04:46:47.627Z,109.85
2023-04-16T04:47:47.625Z,109.48
2023-04-16T04:48:47.595Z,115.25
2023-04-16T04:49:47.589Z,115.85
2023-04-16T04:50:47.583Z,119.48
2023-04-16T04:51:47.549Z,115.00
2023-04-16T04:52:47.543Z,112.81
2023-04-16T04:53:47.510Z,109.89
2023-04-16T04:54:47.495Z,115.29
2023-04-16T04:55:50.892Z,109.29
2023-04-16T04:56:48.438Z,109.40
2023-04-16T04:57:47.398Z,110.03
2023-04-16T04:58:47.361Z,112.54
2023-04-16T04:59:47.317Z,112.70
2023-04-16T05:00:47.299Z,116.27
2023-04-16T05:01:47.246Z,114.69
2023-04-16T05:02:47.335Z,112.45
2023-04-16T05:03:47.292Z,115.95
2023-04-16T05:04:47.181Z,113.89
2023-04-16T05:05:47.086Z,112.32
2023-04-16T05:06:47.053Z,114.40
2023-04-16T05:07:47.010Z,109.94
2023-04-16T05:08:47.005Z,115.45
2023-04-16T05:09:47.017Z,112.52
2023-04-16T05:10:47.034Z,113.00
2023-04-16T05:11:47.031Z,113.04
2023-04-16T05:12:48.741Z,118.24
2023-04-16T05:13:47.036Z,116.75
2023-04-16T05:14:47.024Z,115.17
2023-04-16T05:15:46.995Z,116.00
2023-04-16T05:16:47.008Z,113.29
2023-04-16T05:17:46.997Z,118.12
2023-04-16T05:18:46.981Z,109.15
2023-04-16T05:19:46.945Z,113.46
2023-04-16T05:20:46.918Z,111.22
2023-04-16T05:21:46.915Z,115.36
2023-04-16T05:22:46.916Z,115.00
2023-04-16T05:23:46.896Z,110.80
2023-04-16T05:24:46.909Z,111.12
2023-04-16T05:25:46.910Z,112.74
2023-04-16T05:26:46.870Z,107.94
2023-04-16T05:27:46.858Z,110.38
2023-04-16T05:28:46.822Z,113.38
2023-04-16T05:29:46.781Z,111.43
2023-04-16T05:30:46.777Z,109.33
2023-04-16T05:31:46.720Z,112.47
2023-04-16T05:32:46.718Z,110.18
2023-04-16T05:33:46.673Z,112.72
2023-04-16T05:34:46.638Z,112.51
2023-04-16T05:35:46.603Z,113.08
2023-04-16T05:36:46.561Z,114.87
2023-04-16T05:37:46.522Z,111.55
2023-04-16T05:38:46.487Z,110.50
2023-04-16T05:39:46.454Z,110.68
2023-04-16T05:40:46.446Z,114.86
2023-04-16T05:41:46.430Z,115.69
2023-04-16T05:42:46.417Z,111.76
2023-04-16T05:43:46.387Z,110.61
2023-04-16T05:44:46.365Z,119.87
2023-04-16T05:45:46.498Z,114.63
2023-04-16T05:46:46.321Z,111.32
2023-04-16T05:47:46.348Z,113.58
2023-04-16T05:48:46.278Z,111.46
2023-04-16T05:49:46.275Z,107.78
2023-04-16T05:50:46.262Z,111.23
2023-04-16T05:51:46.265Z,107.20
2023-04-16T05:52:46.262Z,118.44
2023-04-16T05:53:46.263Z,112.52
2023-04-16T05:54:46.281Z,110.68
2023-04-16T05:55:46.299Z,112.75
2023-04-16T05:56:46.325Z,113.66
2023-04-16T05:57:46.330Z,117.23
2023-04-16T05:58:46.337Z,121.29
2023-04-16T05:59:46.333Z,120.64
2023-04-16T06:00:46.343Z,113.22
2023-04-16T06:01:46.361Z,115.99
2023-04-16T06:02:46.456Z,111.88
2023-04-16T06:03:46.489Z,113.54
2023-04-16T06:04:46.362Z,116.70
2023-04-16T06:05:46.434Z,113.76
2023-04-16T06:06:46.336Z,114.54
2023-04-16T06:07:46.313Z,114.63
2023-04-16T06:08:46.313Z,115.31
2023-04-16T06:09:46.296Z,115.51
2023-04-16T06:10:46.296Z,112.92
2023-04-16T06:11:46.295Z,116.74
2023-04-16T06:12:46.315Z,115.06
2023-04-16T06:13:46.299Z,117.80
2023-04-16T06:14:46.288Z,113.67
2023-04-16T06:15:46.320Z,113.02
2023-04-16T06:16:46.285Z,115.64
2023-04-16T06:17:46.334Z,112.21
2023-04-16T06:18:46.280Z,109.73
2023-04-16T06:19:46.282Z,113.92
2023-04-16T06:20:46.285Z,109.19
2023-04-16T06:21:46.265Z,112.80
2023-04-16T06:22:46.250Z,114.23
2023-04-16T06:23:46.238Z,114.85
2023-04-16T06:24:46.210Z,111.54
2023-04-16T06:25:46.217Z,117.75
2023-04-16T06:26:46.219Z,111.66
2023-04-16T06:27:46.187Z,115.09
2023-04-16T06:28:46.160Z,112.23
2023-04-16T06:29:46.142Z,115.42
2023-04-16T06:30:46.114Z,118.90
2023-04-16T06:31:46.138Z,120.21
2023-04-16T06:32:46.110Z,114.04
2023-04-16T06:33:46.056Z,116.85
2023-04-16T06:34:46.036Z,117.11
2023-04-16T06:35:46.017Z,117.17
2023-04-16T06:36:46.042Z,121.09
2023-04-16T06:37:46.032Z,115.68
2023-04-16T06:38:46.008Z,114.88
2023-04-16T06:39:46.007Z,116.54
2023-04-16T06:40:45.997Z,111.07
2023-04-16T06:41:46.002Z,113.16
2023-04-16T06:42:46.048Z,115.89
2023-04-16T06:43:46.023Z,113.12
2023-04-16T06:44:46.037Z,113.02
2023-04-16T06:45:46.037Z,111.72
2023-04-16T06:46:46.101Z,119.90
2023-04-16T06:47:46.048Z,121.17
2023-04-16T06:48:46.020Z,120.40
2023-04-16T06:49:46.013Z,118.16
2023-04-16T06:50:46.033Z,118.89
2023-04-16T06:51:46.027Z,123.72
2023-04-16T06:52:46.029Z,115.57
2023-04-16T06:53:46.015Z,118.98
2023-04-16T06:54:45.997Z,114.51
2023-04-16T06:55:45.967Z,118.83
2023-04-16T06:56:45.953Z,108.95
2023-04-16T06:57:45.967Z,115.73
2023-04-16T06:58:45.935Z,111.45
2023-04-16T06:59:45.903Z,118.84
2023-04-16T07:00:45.930Z,114.30
2023-04-16T07:01:45.908Z,112.10
2023-04-16T07:02:46.001Z,116.83
2023-04-16T07:03:46.013Z,120.03
2023-04-16T07:04:45.857Z,119.70
2023-04-16T07:05:45.864Z,119.38
2023-04-16T07:06:45.848Z,121.05
2023-04-16T07:07:45.821Z,122.73
2023-04-16T07:08:45.775Z,118.71
2023-04-16T07:09:45.765Z,116.57
2023-04-16T07:10:45.736Z,118.79
2023-04-16T07:11:45.718Z,111.66
2023-04-16T07:12:45.692Z,114.50
2023-04-16T07:13:45.657Z,115.02
2023-04-16T07:14:45.627Z,117.98
2023-04-16T07:15:45.618Z,124.19
2023-04-16T07:16:45.621Z,118.75
2023-04-16T07:17:45.594Z,124.65
2023-04-16T07:18:45.541Z,122.40
2023-04-16T07:19:45.511Z,117.48
2023-04-16T07:20:45.484Z,121.60
2023-04-16T07:21:45.452Z,120.00
2023-04-16T07:22:45.433Z,123.26
2023-04-16T07:23:45.411Z,120.99
2023-04-16T07:24:45.374Z,120.30
2023-04-16T07:25:46.032Z,114.69
2023-04-16T07:26:45.326Z,120.62
2023-04-16T07:27:45.288Z,117.42
2023-04-16T07:28:45.264Z,118.21
2023-04-16T07:29:45.252Z,129.39
2023-04-16T07:30:45.221Z,133.46
2023-04-16T07:31:45.229Z,123.90
2023-04-16T07:32:45.222Z,123.15
2023-04-16T07:33:45.185Z,123.76
2023-04-16T07:34:45.172Z,125.89
2023-04-16T07:35:45.132Z,123.83
2023-04-16T07:36:45.114Z,124.92
2023-04-16T07:37:45.127Z,124.91
2023-04-16T07:38:45.091Z,123.30
2023-04-16T07:39:45.071Z,121.78
2023-04-16T07:40:45.041Z,122.62
2023-04-16T07:41:45.013Z,128.81
2023-04-16T07:42:44.982Z,122.83
2023-04-16T07:43:44.949Z,123.37
2023-04-16T07:44:44.931Z,126.04
2023-04-16T07:45:44.914Z,124.82
2023-04-16T07:46:47.300Z,124.74
2023-04-16T07:47:44.856Z,123.94
2023-04-16T07:48:44.792Z,118.31
2023-04-16T07:49:44.742Z,117.82
2023-04-16T07:50:44.695Z,120.77
2023-04-16T07:51:44.667Z,122.99
2023-04-16T07:52:44.614Z,123.66
2023-04-16T07:53:44.573Z,120.04
2023-04-16T07:54:44.544Z,123.91
2023-04-16T07:55:44.487Z,122.90
2023-04-16T07:56:44.442Z,119.62
2023-04-16T07:57:44.397Z,121.84
2023-04-16T07:58:44.413Z,114.39
2023-04-16T07:59:44.317Z,121.21
2023-04-16T08:00:44.278Z,125.50
2023-04-16T08:01:44.261Z,118.48
2023-04-16T08:02:44.380Z,118.09
2023-04-16T08:03:44.394Z,126.86
2023-04-16T08:04:44.199Z,126.88
2023-04-16T08:05:44.073Z,125.04
2023-04-16T08:06:44.010Z,120.79
2023-04-16T08:07:43.986Z,122.07
2023-04-16T08:08:43.924Z,121.20
2023-04-16T08:09:43.875Z,121.37
2023-04-16T08:10:43.829Z,122.82
2023-04-16T08:11:43.791Z,117.27
2023-04-16T08:12:43.748Z,123.45
2023-04-16T08:13:43.712Z,126.86
2023-04-16T08:14:43.677Z,126.65
2023-04-16T08:15:43.682Z,127.29
2023-04-16T08:16:43.602Z,131.49
2023-04-16T08:17:43.596Z,123.17
2023-04-16T08:18:43.567Z,126.00
2023-04-16T08:19:43.502Z,122.81
2023-04-16T08:20:43.497Z,124.84
2023-04-16T08:21:43.417Z,127.37
2023-04-16T08:22:43.390Z,123.23
2023-04-16T08:23:43.351Z,130.51
2023-04-16T08:24:43.316Z,130.68
2023-04-16T08:25:43.272Z,131.82
2023-04-16T08:26:43.227Z,140.30
2023-04-16T08:27:43.187Z,135.47
2023-04-16T08:28:43.150Z,140.88
2023-04-16T08:29:43.099Z,141.65
2023-04-16T08:30:43.069Z,141.67
2023-04-16T08:31:43.175Z,142.97
2023-04-16T08:32:43.024Z,134.97
2023-04-16T08:33:42.947Z,139.44
2023-04-16T08:34:42.904Z,136.91
2023-04-16T08:35:42.851Z,139.63
2023-04-16T08:36:42.823Z,141.90
2023-04-16T08:37:42.823Z,138.77
2023-04-16T08:38:42.733Z,140.78
2023-04-16T08:39:42.690Z,142.82
2023-04-16T08:40:42.671Z,142.08
2023-04-16T08:41:42.609Z,143.75
2023-04-16T08:42:42.570Z,140.31
2023-04-16T08:43:42.525Z,135.76
2023-04-16T08:44:42.512Z,133.84
2023-04-16T08:45:42.445Z,129.85
2023-04-16T08:46:42.472Z,132.32
2023-04-16T08:47:42.401Z,133.76
2023-04-16T08:48:42.310Z,131.63
2023-04-16T08:49:42.257Z,133.25
2023-04-16T08:50:42.200Z,136.68
2023-04-16T08:51:42.171Z,138.21
2023-04-16T08:52:42.109Z,137.15
2023-04-16T08:53:42.069Z,132.56
2023-04-16T08:54:42.022Z,139.20
2023-04-16T08:55:41.973Z,135.70
2023-04-16T08:56:43.061Z,133.64
2023-04-16T08:57:41.885Z,135.04
2023-04-16T08:58:41.856Z,135.63
2023-04-16T08:59:41.801Z,132.59
2023-04-16T09:00:41.798Z,129.25
2023-04-16T09:01:41.763Z,130.66
2023-04-16T09:02:41.802Z,130.55
2023-04-16T09:03:41.762Z,130.99
2023-04-16T09:04:41.671Z,129.32
2023-04-16T09:05:41.557Z,129.63
2023-04-16T09:06:41.515Z,130.59
2023-04-16T09:07:41.472Z,129.38
2023-04-16T09:08:41.440Z,129.60
2023-04-16T09:09:41.398Z,130.90
2023-04-16T09:10:41.350Z,127.68
2023-04-16T09:11:41.333Z,134.24
2023-04-16T09:12:41.273Z,134.71
2023-04-16T09:13:41.248Z,137.96
2023-04-16T09:14:41.216Z,136.81
2023-04-16T09:15:41.170Z,132.79
2023-04-16T09:16:41.305Z,130.60
2023-04-16T09:17:41.182Z,131.10
2023-04-16T09:18:41.058Z,133.81
2023-04-16T09:19:41.013Z,131.86
2023-04-16T09:20:40.964Z,137.61
2023-04-16T09:21:40.916Z,136.36
2023-04-16T09:22:40.906Z,136.26
2023-04-16T09:23:40.827Z,140.16
2023-04-16T09:24:40.782Z,135.99
2023-04-16T09:25:40.744Z,142.61
2023-04-16T09:26:40.694Z,141.36
2023-04-16T09:27:40.650Z,139.88
2023-04-16T09:28:40.614Z,134.98
2023-04-16T09:29:40.559Z,135.00
2023-04-16T09:30:40.515Z,136.76
2023-04-16T09:31:40.517Z,132.67
2023-04-16T09:32:40.472Z,138.09
2023-04-16T09:33:40.381Z,136.73
2023-04-16T09:34:40.336Z,138.10
2023-04-16T09:35:40.283Z,138.00
2023-04-16T09:36:40.247Z,129.00
2023-04-16T09:37:40.186Z,130.62
2023-04-16T09:38:40.156Z,128.21
2023-04-16T09:39:40.108Z,127.03
2023-04-16T09:40:40.075Z,129.89
2023-04-16T09:41:40.025Z,128.07
2023-04-16T09:42:39.989Z,129.98
2023-04-16T09:43:39.917Z,131.22
2023-04-16T09:44:39.956Z,132.01
2023-04-16T09:45:39.845Z,127.97
2023-04-16T09:46:39.782Z,131.52
2023-04-16T09:47:39.824Z,126.87
2023-04-16T09:48:39.680Z,127.98
2023-04-16T09:49:39.646Z,128.28
2023-04-16T09:50:39.585Z,127.30
2023-04-16T09:51:39.543Z,125.80
2023-04-16T09:52:39.510Z,126.06
2023-04-16T09:53:39.451Z,126.04
2023-04-16T09:54:39.405Z,123.95
2023-04-16T09:55:39.365Z,128.48
2023-04-16T09:56:39.352Z,124.96
2023-04-16T09:57:39.298Z,129.46
2023-04-16T09:58:39.245Z,127.36
2023-04-16T09:59:39.218Z,125.32
2023-04-16T10:00:43.581Z,124.98
2023-04-16T10:01:39.207Z,125.12
2023-04-16T10:02:39.397Z,125.12
2023-04-16T10:03:39.309Z,124.61
2023-04-16T10:04:39.139Z,126.13
2023-04-16T10:05:38.972Z,120.42
2023-04-16T10:06:38.937Z,125.29
2023-04-16T10:07:38.871Z,124.36
2023-04-16T10:08:38.828Z,127.47
2023-04-16T10:09:38.786Z,126.14
2023-04-16T10:10:38.729Z,124.78
2023-04-16T10:11:38.686Z,118.47
2023-04-16T10:12:38.638Z,121.41
2023-04-16T10:13:38.583Z,122.07
2023-04-16T10:14:38.560Z,123.62
2023-04-16T10:15:38.485Z,121.67
2023-04-16T10:16:38.466Z,117.73
2023-04-16T10:17:38.414Z,123.45
2023-04-16T10:18:38.385Z,124.41
2023-04-16T10:19:38.330Z,121.65
2023-04-16T10:20:38.269Z,127.48
2023-04-16T10:21:38.222Z,123.63
2023-04-16T10:22:38.173Z,120.15
2023-04-16T10:23:38.128Z,121.27
2023-04-16T10:24:38.094Z,125.33
2023-04-16T10:25:38.040Z,118.78
2023-04-16T10:26:37.998Z,123.69
2023-04-16T10:27:37.966Z,123.34
2023-04-16T10:28:37.936Z,120.61
2023-04-16T10:29:37.859Z,126.70
2023-04-16T10:30:37.825Z,123.76
2023-04-16T10:31:37.764Z,121.92
2023-04-16T10:32:37.720Z,122.68
2023-04-16T10:33:37.664Z,125.16
2023-04-16T10:34:37.619Z,122.83
2023-04-16T10:35:37.567Z,119.26
2023-04-16T10:36:37.530Z,117.36
2023-04-16T10:37:37.502Z,125.21
2023-04-16T10:38:37.434Z,120.40
2023-04-16T10:39:37.577Z,124.13
2023-04-16T10:40:37.335Z,123.15
2023-04-16T10:41:37.327Z,127.65
2023-04-16T10:42:37.397Z,122.34
2023-04-16T10:43:37.312Z,125.25
2023-04-16T10:44:37.309Z,120.60
2023-04-16T10:45:37.264Z,124.37
2023-04-16T10:46:37.298Z,122.24
2023-04-16T10:47:37.261Z,127.40
2023-04-16T10:48:48.825Z,123.00
2023-04-16T10:49:38.157Z,123.09
2023-04-16T10:50:37.258Z,124.15
2023-04-16T10:51:37.074Z,123.18
2023-04-16T10:52:37.014Z,126.18
2023-04-16T10:53:37.001Z,127.07
2023-04-16T10:54:36.931Z,127.74
2023-04-16T10:55:36.885Z,122.49
2023-04-16T10:56:36.855Z,119.11
2023-04-16T10:57:36.794Z,124.34
2023-04-16T10:58:36.756Z,122.88
2023-04-16T10:59:36.690Z,127.67
2023-04-16T11:00:36.644Z,121.19
2023-04-16T11:01:36.642Z,121.87
2023-04-16T11:02:36.714Z,125.91
2023-04-16T11:03:36.592Z,125.53
2023-04-16T11:04:36.613Z,122.98
2023-04-16T11:05:36.420Z,126.36
2023-04-16T11:06:36.359Z,120.68
2023-04-16T11:07:36.309Z,124.12
2023-04-16T11:08:44.308Z,120.13
2023-04-16T11:09:37.800Z,120.19
2023-04-16T11:10:36.182Z,120.34
2023-04-16T11:11:36.135Z,122.03
2023-04-16T11:12:36.099Z,121.13
2023-04-16T11:13:36.044Z,121.88
2023-04-16T11:14:35.993Z,126.00
2023-04-16T11:15:35.950Z,122.57
2023-04-16T11:16:35.900Z,116.88
2023-04-16T11:17:35.891Z,123.70
2023-04-16T11:18:35.798Z,121.78
2023-04-16T11:19:36.747Z,121.99
2023-04-16T11:20:35.706Z,120.43
2023-04-16T11:21:35.656Z,119.80
2023-04-16T11:22:35.615Z,123.44
2023-04-16T11:23:35.565Z,124.90
2023-04-16T11:24:35.519Z,124.38
2023-04-16T11:25:35.462Z,121.20
2023-04-16T11:26:35.439Z,123.84
2023-04-16T11:27:35.375Z,123.61
2023-04-16T11:28:35.326Z,117.35
2023-04-16T11:29:35.280Z,122.11
2023-04-16T11:30:35.249Z,125.39
2023-04-16T11:31:35.201Z,122.65
2023-04-16T11:32:35.198Z,126.50
2023-04-16T11:33:35.110Z,126.47
2023-04-16T11:34:35.062Z,120.92
2023-04-16T11:35:35.047Z,124.68
2023-04-16T11:36:35.327Z,123.64
2023-04-16T11:37:34.926Z,123.78
2023-04-16T11:38:34.935Z,121.77
2023-04-16T11:39:34.932Z,123.69
2023-04-16T11:40:34.906Z,124.77
2023-04-16T11:41:34.871Z,127.37
2023-04-16T11:42:34.877Z,124.23
2023-04-16T11:43:34.854Z,123.30
2023-04-16T11:44:34.855Z,124.69
2023-04-16T11:45:34.844Z,119.55
2023-04-16T11:46:34.838Z,123.45
2023-04-16T11:47:34.903Z,123.51
2023-04-16T11:48:34.831Z,126.70
2023-04-16T11:49:34.846Z,125.05
2023-04-16T11:50:34.821Z,123.97
2023-04-16T11:51:34.808Z,123.51
2023-04-16T11:52:34.840Z,126.59
2023-04-16T11:53:34.828Z,124.57
2023-04-16T11:54:34.864Z,127.62
2023-04-16T11:55:34.844Z,123.37
2023-04-16T11:56:34.848Z,125.30
2023-04-16T11:57:34.830Z,128.76
2023-04-16T11:58:34.857Z,123.20
2023-04-16T11:59:34.822Z,124.11
2023-04-16T12:00:34.845Z,127.21
2023-04-16T12:01:34.847Z,120.74
2023-04-16T12:02:34.941Z,123.44
2023-04-16T12:03:35.022Z,120.06
2023-04-16T12:04:34.934Z,121.37
2023-04-16T12:05:34.891Z,123.18
2023-04-16T12:06:34.893Z,123.53
2023-04-16T12:07:34.911Z,122.00
2023-04-16T12:08:34.907Z,121.68
2023-04-16T12:09:36.103Z,125.99
2023-04-16T12:10:34.890Z,121.45
2023-04-16T12:11:34.831Z,122.99
2023-04-16T12:12:34.812Z,127.65
2023-04-16T12:13:34.775Z,126.76
2023-04-16T12:14:34.713Z,127.42
2023-04-16T12:15:34.681Z,122.88
2023-04-16T12:16:35.904Z,123.86
2023-04-16T12:17:34.608Z,132.84
2023-04-16T12:18:34.534Z,127.66
2023-04-16T12:19:34.492Z,123.70
2023-04-16T12:20:34.458Z,123.26
2023-04-16T12:21:34.404Z,129.53
2023-04-16T12:22:36.588Z,126.42
2023-04-16T12:23:34.399Z,128.28
2023-04-16T12:24:34.280Z,125.55
2023-04-16T12:25:34.237Z,128.10
2023-04-16T12:26:34.195Z,123.54
2023-04-16T12:27:34.154Z,121.42
2023-04-16T12:28:34.164Z,127.47
2023-04-16T12:29:34.070Z,122.68
2023-04-16T12:30:34.044Z,129.38
2023-04-16T12:31:33.977Z,123.66